createdAt,value
2023-02-27T00:01:15.536Z,2.88
2023-02-27T00:03:44.263Z,2.50
2023-02-27T00:06:11.639Z,2.90
2023-02-27T00:08:39.166Z,3.10
2023-02-27T00:11:06.566Z,2.50
2023-02-27T00:13:33.912Z,3.00
2023-02-27T00:16:01.545Z,2.55
2023-02-27T00:18:29.103Z,3.10
2023-02-27T00:20:56.514Z,2.58
2023-02-27T00:23:24.078Z,2.58
2023-02-27T00:25:52.293Z,2.78
2023-02-27T00:28:19.711Z,2.88
2023-02-27T00:30:47.106Z,2.08
2023-02-27T00:33:14.975Z,2.85
2023-02-27T00:35:42.443Z,2.40
2023-02-27T00:38:10.960Z,2.30
2023-02-27T00:40:38.391Z,2.30
2023-02-27T00:43:06.088Z,2.33
2023-02-27T00:45:33.612Z,2.53
2023-02-27T00:48:00.935Z,2.25
2023-02-27T00:50:28.672Z,2.15
2023-02-27T00:52:56.016Z,2.45
2023-02-27T00:55:24.545Z,2.30
2023-02-27T00:57:53.321Z,2.70
2023-02-27T01:00:20.968Z,2.05
2023-02-27T01:02:48.307Z,2.28
2023-02-27T01:05:16.210Z,2.03
2023-02-27T01:07:46.580Z,2.20
2023-02-27T01:10:14.406Z,2.13
2023-02-27T01:12:41.730Z,2.00
2023-02-27T01:15:10.361Z,2.47
2023-02-27T01:17:38.917Z,3.55
2023-02-27T01:20:10.257Z,2.38
2023-02-27T01:22:37.753Z,2.40
2023-02-27T01:25:05.341Z,2.35
2023-02-27T01:27:35.516Z,2.28
2023-02-27T01:30:03.630Z,2.75
2023-02-27T01:32:31.029Z,2.60
2023-02-27T01:34:59.507Z,2.08
2023-02-27T01:37:26.875Z,2.78
2023-02-27T01:39:54.226Z,2.63
2023-02-27T01:42:27.458Z,2.35
2023-02-27T01:47:33.863Z,2.75
2023-02-27T01:50:01.378Z,2.10
2023-02-27T01:52:30.366Z,2.63
2023-02-27T01:54:58.160Z,2.25
2023-02-27T01:57:27.115Z,2.85
2023-02-27T01:59:54.490Z,2.30
2023-02-27T02:02:26.084Z,2.40
2023-02-27T02:04:54.808Z,2.42
2023-02-27T02:07:22.756Z,2.85
2023-02-27T02:09:52.412Z,2.45
2023-02-27T02:12:22.882Z,2.53
2023-02-27T02:14:50.802Z,3.25
2023-02-27T02:17:23.943Z,2.55
2023-02-27T02:20:29.229Z,2.80
2023-02-27T02:23:18.229Z,2.60
2023-02-27T02:26:06.983Z,2.22
2023-02-27T02:29:09.578Z,2.17
2023-02-27T02:32:04.029Z,2.40
2023-02-27T02:34:44.274Z,2.30
2023-02-27T02:37:37.784Z,2.40
2023-02-27T02:40:10.985Z,2.40
2023-02-27T02:42:45.023Z,2.40
2023-02-27T02:45:40.029Z,2.63
2023-02-27T02:48:50.810Z,2.88
2023-02-27T02:51:39.834Z,2.30
2023-02-27T02:54:12.050Z,2.67
2023-02-27T02:56:45.457Z,2.20
2023-02-27T02:59:29.947Z,2.25
2023-02-27T03:02:10.614Z,2.15
2023-02-27T03:04:43.204Z,2.22
2023-02-27T03:07:15.970Z,2.03
2023-02-27T03:12:25.203Z,2.00
2023-02-27T03:15:03.787Z,2.47
2023-02-27T03:17:56.217Z,2.40
2023-02-27T03:20:27.063Z,1.57
2023-02-27T03:22:58.230Z,2.38
2023-02-27T03:25:27.432Z,2.20
2023-02-27T03:27:59.106Z,2.60
2023-02-27T03:30:51.292Z,2.15
2023-02-27T03:33:26.377Z,2.45
2023-02-27T03:36:14.771Z,2.22
2023-02-27T03:38:49.943Z,2.78
2023-02-27T03:41:43.619Z,2.17
2023-02-27T03:44:26.555Z,2.40
2023-02-27T03:46:54.002Z,1.92
2023-02-27T03:49:22.215Z,2.05
2023-02-27T03:51:50.394Z,2.05
2023-02-27T03:54:21.887Z,1.88
2023-02-27T03:56:56.224Z,2.20
2023-02-27T03:59:26.230Z,2.05
2023-02-27T04:01:55.945Z,2.00
2023-02-27T04:04:24.402Z,2.33
2023-02-27T04:07:25.188Z,1.92
2023-02-27T04:10:20.144Z,2.38
2023-02-27T04:13:16.742Z,2.17
2023-02-27T04:15:57.315Z,2.47
2023-02-27T04:19:04.294Z,1.92
2023-02-27T04:21:41.099Z,2.22
2023-02-27T04:24:17.575Z,2.35
2023-02-27T04:26:53.132Z,2.38
2023-02-27T04:29:40.896Z,2.65
2023-02-27T04:32:25.981Z,2.33
2023-02-27T04:34:58.032Z,2.10
2023-02-27T04:37:44.152Z,2.30
2023-02-27T04:40:15.194Z,2.47
2023-02-27T04:42:48.168Z,2.15
2023-02-27T04:45:18.888Z,2.30
2023-02-27T04:47:50.036Z,2.35
2023-02-27T04:50:32.423Z,2.72
2023-02-27T04:53:23.445Z,2.80
2023-02-27T04:55:57.754Z,2.42
2023-02-27T04:58:32.552Z,2.25
2023-02-27T05:01:11.108Z,2.78
2023-02-27T05:03:47.000Z,2.20
2023-02-27T05:06:16.731Z,2.17
2023-02-27T05:09:22.380Z,2.55
2023-02-27T05:12:19.892Z,2.63
2023-02-27T05:15:16.397Z,2.70
2023-02-27T05:18:06.532Z,2.50
2023-02-27T05:21:11.781Z,2.53
2023-02-27T05:23:55.408Z,2.05
2023-02-27T05:26:46.185Z,2.20
2023-02-27T05:29:56.248Z,2.05
2023-02-27T05:32:43.547Z,2.42
2023-02-27T05:35:36.556Z,2.25
2023-02-27T05:38:17.218Z,2.33
2023-02-27T05:40:52.364Z,2.47
2023-02-27T05:43:23.404Z,2.53
2023-02-27T05:45:57.088Z,2.90
2023-02-27T05:48:27.955Z,2.92
2023-02-27T05:50:56.073Z,2.65
2023-02-27T05:53:28.195Z,2.75
2023-02-27T05:55:58.359Z,2.63
2023-02-27T05:58:58.107Z,2.53
2023-02-27T06:01:25.480Z,2.30
2023-02-27T06:03:53.772Z,2.60
2023-02-27T06:06:21.191Z,3.15
2023-02-27T06:08:51.245Z,3.17
2023-02-27T06:11:20.153Z,3.40
2023-02-27T06:13:50.024Z,3.03
2023-02-27T06:16:18.492Z,2.95
2023-02-27T06:18:45.984Z,2.63
2023-02-27T06:21:14.972Z,2.70
2023-02-27T06:23:42.365Z,3.25
2023-02-27T06:26:14.292Z,3.60
2023-02-27T06:28:42.589Z,2.80
2023-02-27T06:31:12.325Z,3.50
2023-02-27T06:33:40.446Z,2.55
2023-02-27T06:36:07.954Z,2.80
2023-02-27T06:38:35.681Z,3.45
2023-02-27T06:41:04.391Z,2.95
2023-02-27T06:43:34.789Z,2.80
2023-02-27T06:46:03.525Z,3.08
2023-02-27T06:48:36.507Z,3.20
2023-02-27T06:51:06.220Z,3.10
2023-02-27T06:53:33.754Z,3.35
2023-02-27T06:56:07.388Z,3.05
2023-02-27T06:58:34.883Z,3.70
2023-02-27T07:01:02.511Z,3.25
2023-02-27T07:03:29.982Z,3.28
2023-02-27T07:05:59.886Z,3.03
2023-02-27T07:08:27.314Z,2.97
2023-02-27T07:10:54.696Z,2.97
2023-02-27T07:13:23.918Z,2.80
2023-02-27T07:15:52.597Z,2.90
2023-02-27T07:18:20.175Z,3.55
2023-02-27T07:20:52.712Z,3.08
2023-02-27T07:23:20.087Z,3.38
2023-02-27T07:25:50.878Z,2.83
2023-02-27T07:28:21.167Z,2.85
2023-02-27T07:30:48.991Z,3.10
2023-02-27T07:33:18.570Z,2.55
2023-02-27T07:35:47.464Z,2.95
2023-02-27T07:38:15.331Z,2.40
2023-02-27T07:40:46.350Z,2.10
2023-02-27T07:43:15.307Z,2.53
2023-02-27T07:45:42.810Z,2.00
2023-02-27T07:48:10.824Z,2.60
2023-02-27T07:50:45.466Z,2.63
2023-02-27T07:53:13.724Z,2.70
2023-02-27T07:55:41.606Z,2.70
2023-02-27T07:58:11.194Z,3.03
2023-02-27T08:00:38.549Z,3.10
2023-02-27T08:03:06.678Z,2.88
2023-02-27T08:05:35.341Z,3.08
2023-02-27T08:08:03.431Z,3.38
2023-02-27T08:10:32.109Z,2.97
2023-02-27T08:12:59.566Z,3.00
2023-02-27T08:15:27.068Z,3.00
2023-02-27T08:17:57.552Z,2.55
2023-02-27T08:20:25.355Z,2.42
2023-02-27T08:22:52.726Z,2.42
2023-02-27T08:25:21.969Z,2.30
2023-02-27T08:27:49.522Z,2.67
2023-02-27T08:30:17.882Z,3.00
2023-02-27T08:32:46.271Z,3.00
2023-02-27T08:35:13.777Z,2.92
2023-02-27T08:37:41.274Z,2.80
2023-02-27T08:40:13.685Z,2.88
2023-02-27T08:42:47.362Z,2.55
2023-02-27T08:45:17.461Z,2.63
2023-02-27T08:47:45.758Z,2.85
2023-02-27T08:50:13.243Z,2.33
2023-02-27T08:52:41.163Z,3.15
2023-02-27T08:55:09.443Z,2.70
2023-02-27T08:57:36.781Z,2.78
2023-02-27T09:00:07.205Z,2.97
2023-02-27T09:02:34.876Z,3.00
2023-02-27T09:05:03.309Z,2.47
2023-02-27T09:07:36.808Z,2.90
2023-02-27T09:10:04.582Z,2.47
2023-02-27T09:12:32.036Z,2.33
2023-02-27T09:14:59.395Z,2.88
2023-02-27T09:17:26.774Z,2.30
2023-02-27T09:19:56.516Z,2.33
2023-02-27T09:22:26.122Z,2.58
2023-02-27T09:24:53.483Z,2.30
2023-02-27T09:27:20.867Z,2.50
2023-02-27T09:29:48.932Z,2.58
2023-02-27T09:32:16.667Z,2.13
2023-02-27T09:34:45.099Z,2.40
2023-02-27T09:37:12.508Z,1.92
2023-02-27T09:39:39.852Z,2.35
2023-02-27T09:42:24.246Z,2.20
2023-02-27T09:44:54.359Z,2.08
2023-02-27T09:47:43.415Z,2.40
2023-02-27T09:50:44.877Z,2.13
2023-02-27T09:53:32.525Z,2.15
2023-02-27T09:56:28.187Z,1.85
2023-02-27T09:59:12.373Z,2.30
2023-02-27T10:02:13.777Z,2.63
2023-02-27T10:04:54.434Z,2.00
2023-02-27T10:07:48.641Z,1.55
2023-02-27T10:10:26.721Z,1.48
2023-02-27T10:13:09.510Z,1.88
2023-02-27T10:15:51.208Z,2.00
2023-02-27T10:18:32.028Z,2.28
2023-02-27T10:21:07.739Z,1.85
2023-02-27T10:23:48.077Z,1.75
2023-02-27T10:26:21.846Z,1.77
2023-02-27T10:28:49.973Z,1.63
2023-02-27T10:31:27.429Z,1.52
2023-02-27T10:33:56.854Z,1.70
2023-02-27T10:36:33.663Z,2.13
2023-02-27T10:39:08.169Z,1.70
2023-02-27T10:41:45.660Z,1.60
2023-02-27T10:44:16.678Z,1.70
2023-02-27T10:46:49.568Z,1.70
2023-02-27T10:49:21.232Z,1.88
2023-02-27T10:52:07.628Z,1.73
2023-02-27T10:54:35.271Z,1.80
2023-02-27T10:57:05.383Z,1.98
2023-02-27T10:59:38.305Z,1.85
2023-02-27T11:04:54.136Z,1.58
2023-02-27T11:07:48.652Z,1.85
2023-02-27T11:10:22.850Z,1.80
2023-02-27T11:13:05.465Z,1.83
2023-02-27T11:15:37.792Z,2.08
2023-02-27T11:18:29.962Z,1.85
2023-02-27T11:21:12.809Z,1.80
2023-02-27T11:23:53.696Z,2.08
2023-02-27T11:26:28.227Z,1.83
2023-02-27T11:29:07.620Z,1.77
2023-02-27T11:31:38.931Z,1.85
2023-02-27T11:34:08.400Z,1.60
2023-02-27T11:36:46.816Z,2.08
2023-02-27T11:39:35.131Z,1.50
2023-02-27T11:42:25.142Z,1.80
2023-02-27T11:45:04.097Z,1.83
2023-02-27T11:47:43.889Z,1.65
2023-02-27T11:50:50.942Z,1.80
2023-02-27T11:53:46.030Z,1.90
2023-02-27T11:56:36.176Z,1.70
2023-02-27T11:59:17.301Z,1.85
2023-02-27T12:02:01.325Z,1.73
2023-02-27T12:04:47.515Z,1.92
2023-02-27T12:07:54.888Z,1.42
2023-02-27T12:10:22.889Z,1.80
2023-02-27T12:13:03.305Z,1.50
2023-02-27T12:15:32.846Z,1.80
2023-02-27T12:18:16.574Z,2.00
2023-02-27T12:20:52.585Z,1.80
2023-02-27T12:23:46.183Z,1.90
2023-02-27T12:26:37.420Z,1.27
2023-02-27T12:29:15.249Z,2.00
2023-02-27T12:31:48.623Z,1.92
2023-02-27T12:34:55.524Z,1.77
2023-02-27T12:37:27.860Z,1.90
2023-02-27T12:39:58.597Z,2.13
2023-02-27T12:42:32.138Z,1.50
2023-02-27T12:45:23.020Z,1.90
2023-02-27T12:48:23.900Z,1.52
2023-02-27T12:51:29.434Z,1.92
2023-02-27T12:54:02.691Z,2.13
2023-02-27T12:59:43.174Z,1.80
2023-02-27T13:02:13.285Z,1.83
2023-02-27T13:04:48.960Z,1.40
2023-02-27T13:07:33.023Z,1.50
2023-02-27T13:10:04.002Z,1.65
2023-02-27T13:12:44.775Z,1.50
2023-02-27T13:15:28.397Z,1.40
2023-02-27T13:18:29.170Z,1.60
2023-02-27T13:21:15.420Z,1.80
2023-02-27T13:24:44.197Z,1.70
2023-02-27T13:27:34.488Z,1.38
2023-02-27T13:30:05.325Z,1.73
2023-02-27T13:32:44.487Z,1.43
2023-02-27T13:35:39.877Z,1.48
2023-02-27T13:38:30.657Z,1.60
2023-02-27T13:40:58.285Z,2.05
2023-02-27T13:43:51.082Z,1.50
2023-02-27T13:46:29.008Z,1.38
2023-02-27T13:49:28.844Z,1.55
2023-02-27T13:51:59.860Z,1.30
2023-02-27T13:54:32.779Z,1.30
2023-02-27T13:57:07.362Z,1.33
2023-02-27T13:59:39.713Z,1.30
2023-02-27T14:02:31.427Z,1.17
2023-02-27T14:05:03.126Z,1.40
2023-02-27T14:07:34.632Z,1.17
2023-02-27T14:10:11.624Z,1.30
2023-02-27T14:12:45.826Z,1.35
2023-02-27T14:15:22.269Z,1.42
2023-02-27T14:17:54.655Z,1.30
2023-02-27T14:20:30.741Z,1.27
2023-02-27T14:23:19.730Z,1.60
2023-02-27T14:26:24.156Z,1.83
2023-02-27T14:28:56.537Z,1.77
2023-02-27T14:31:31.608Z,1.52
2023-02-27T14:34:05.302Z,1.70
2023-02-27T14:36:45.789Z,1.60
2023-02-27T14:39:23.389Z,1.50
2023-02-27T14:42:00.107Z,1.80
2023-02-27T14:44:33.394Z,1.80
2023-02-27T14:47:03.904Z,1.40
2023-02-27T14:49:36.145Z,1.75
2023-02-27T14:52:21.712Z,1.80
2023-02-27T14:54:51.068Z,1.45
2023-02-27T14:57:26.782Z,1.58
2023-02-27T14:59:54.986Z,1.70
2023-02-27T15:02:27.354Z,1.40
2023-02-27T15:05:03.765Z,1.60
2023-02-27T15:07:32.662Z,1.98
2023-02-27T15:10:04.394Z,1.70
2023-02-27T15:12:33.294Z,1.27
2023-02-27T15:15:02.634Z,1.40
2023-02-27T15:17:39.763Z,1.40
2023-02-27T15:20:24.562Z,1.63
2023-02-27T15:22:52.475Z,1.90
2023-02-27T15:25:37.476Z,1.40
2023-02-27T15:28:27.551Z,1.40
2023-02-27T15:30:55.998Z,1.40
2023-02-27T15:33:30.859Z,1.60
2023-02-27T15:35:58.561Z,1.17
2023-02-27T15:38:34.599Z,1.40
2023-02-27T15:41:03.358Z,1.85
2023-02-27T15:43:31.371Z,1.42
2023-02-27T15:45:59.386Z,1.55
2023-02-27T15:48:27.043Z,1.50
2023-02-27T15:50:59.417Z,1.58
2023-02-27T15:53:28.969Z,1.60
2023-02-27T15:56:01.791Z,1.60
2023-02-27T15:58:31.384Z,1.60
2023-02-27T16:01:11.658Z,1.67
2023-02-27T16:03:45.626Z,1.60
2023-02-27T16:06:36.727Z,1.63
2023-02-27T16:09:07.165Z,2.20
2023-02-27T16:11:37.226Z,1.90
2023-02-27T16:14:06.121Z,1.75
2023-02-27T16:16:38.727Z,1.40
2023-02-27T16:19:35.680Z,2.10
2023-02-27T16:22:17.376Z,1.92
2023-02-27T16:24:45.453Z,2.20
2023-02-27T16:27:26.327Z,1.88
2023-02-27T16:29:55.728Z,1.55
2023-02-27T16:32:44.176Z,1.73
2023-02-27T16:35:23.120Z,1.60
2023-02-27T16:37:54.412Z,1.67
2023-02-27T16:40:24.476Z,1.67
2023-02-27T16:42:52.637Z,1.40
2023-02-27T16:45:22.684Z,1.40
2023-02-27T16:47:52.746Z,1.33
2023-02-27T16:50:40.574Z,1.80
2023-02-27T16:53:08.992Z,1.80
2023-02-27T16:55:40.880Z,1.67
2023-02-27T16:58:09.818Z,1.85
2023-02-27T17:00:37.132Z,1.67
2023-02-27T17:03:06.240Z,1.52
2023-02-27T17:05:35.716Z,1.85
2023-02-27T17:08:03.138Z,2.03
2023-02-27T17:10:30.453Z,2.00
2023-02-27T17:12:58.920Z,1.85
2023-02-27T17:15:27.757Z,1.83
2023-02-27T17:17:55.356Z,1.77
2023-02-27T17:20:24.478Z,2.10
2023-02-27T17:22:51.789Z,2.10
2023-02-27T17:25:19.203Z,2.30
2023-02-27T17:27:46.580Z,2.30
2023-02-27T17:30:15.216Z,2.17
2023-02-27T17:32:42.654Z,2.65
2023-02-27T17:35:10.471Z,3.40
2023-02-27T17:37:37.885Z,3.75
2023-02-27T17:40:08.146Z,3.40
2023-02-27T17:42:39.355Z,3.17
2023-02-27T17:45:08.094Z,2.90
2023-02-27T17:47:36.048Z,2.90
2023-02-27T17:50:04.306Z,3.05
2023-02-27T17:52:31.641Z,2.90
2023-02-27T17:54:59.169Z,2.58
2023-02-27T17:57:26.480Z,2.28
2023-02-27T17:59:53.840Z,2.30
2023-02-27T18:02:21.343Z,2.60
2023-02-27T18:04:49.216Z,2.58
2023-02-27T18:07:16.664Z,2.40
2023-02-27T18:09:45.796Z,2.70
2023-02-27T18:12:13.190Z,2.90
2023-02-27T18:14:40.607Z,2.65
2023-02-27T18:17:12.032Z,2.50
2023-02-27T18:19:43.448Z,2.70
2023-02-27T18:22:11.411Z,2.53
2023-02-27T18:24:38.991Z,2.40
2023-02-27T18:27:06.350Z,2.80
2023-02-27T18:29:33.808Z,2.88
2023-02-27T18:32:03.489Z,2.75
2023-02-27T18:34:30.938Z,3.30
2023-02-27T18:36:58.398Z,2.80
2023-02-27T18:39:25.864Z,2.75
2023-02-27T18:41:53.228Z,2.58
2023-02-27T18:44:20.584Z,2.50
2023-02-27T18:46:47.999Z,2.95
2023-02-27T18:49:16.572Z,3.08
2023-02-27T18:51:44.267Z,2.90
2023-02-27T18:54:13.647Z,3.60
2023-02-27T18:56:41.587Z,3.17
2023-02-27T18:59:08.997Z,3.42
2023-02-27T19:01:39.837Z,3.28
2023-02-27T19:04:08.036Z,2.92
2023-02-27T19:06:46.634Z,3.00
2023-02-27T19:09:20.373Z,3.15
2023-02-27T19:11:49.096Z,2.85
2023-02-27T19:14:16.756Z,3.20
2023-02-27T19:16:46.104Z,3.17
2023-02-27T19:19:13.528Z,3.00
2023-02-27T19:21:41.078Z,3.00
2023-02-27T19:24:09.393Z,3.10
2023-02-27T19:26:36.874Z,3.35
2023-02-27T19:29:05.465Z,3.90
2023-02-27T19:31:33.265Z,3.10
2023-02-27T19:34:00.998Z,3.33
2023-02-27T19:36:30.286Z,3.28
2023-02-27T19:38:58.534Z,3.10
2023-02-27T19:41:26.288Z,3.17
2023-02-27T19:43:54.484Z,3.58
2023-02-27T19:46:24.761Z,3.47
2023-02-27T19:48:54.064Z,3.30
2023-02-27T19:51:26.059Z,3.78
2023-02-27T19:53:53.796Z,3.43
2023-02-27T19:56:40.037Z,3.28
2023-02-27T19:59:07.544Z,3.90
2023-02-27T20:01:37.072Z,4.80
2023-02-27T20:04:04.863Z,4.13
2023-02-27T20:06:41.926Z,3.58
2023-02-27T20:09:12.992Z,3.20
2023-02-27T20:11:40.824Z,3.25
2023-02-27T20:14:08.548Z,3.50
2023-02-27T20:16:36.964Z,3.40
2023-02-27T20:19:05.757Z,3.78
2023-02-27T20:21:33.869Z,3.60
2023-02-27T20:24:01.865Z,4.22
2023-02-27T20:26:36.423Z,4.65
2023-02-27T20:29:25.827Z,4.60
2023-02-27T20:31:54.011Z,3.70
2023-02-27T20:34:25.809Z,4.00
2023-02-27T20:36:57.938Z,4.00
2023-02-27T20:39:26.237Z,3.75
2023-02-27T20:41:56.253Z,3.83
2023-02-27T20:44:23.720Z,3.55
2023-02-27T20:46:51.169Z,3.90
2023-02-27T20:49:19.081Z,3.80
2023-02-27T20:51:46.788Z,4.28
2023-02-27T20:54:19.954Z,4.60
2023-02-27T20:56:52.252Z,3.88
2023-02-27T20:59:21.347Z,4.30
2023-02-27T21:01:52.069Z,3.92
2023-02-27T21:04:22.422Z,4.00
2023-02-27T21:06:53.256Z,3.72
2023-02-27T21:09:20.711Z,4.07
2023-02-27T21:11:48.069Z,3.90
2023-02-27T21:14:16.654Z,3.90
2023-02-27T21:16:44.720Z,3.92
2023-02-27T21:19:12.070Z,4.07
2023-02-27T21:21:39.429Z,4.20
2023-02-27T21:24:07.274Z,3.70
2023-02-27T21:26:38.224Z,4.05
2023-02-27T21:29:12.368Z,4.15
2023-02-27T21:31:42.073Z,4.18
2023-02-27T21:34:12.920Z,4.30
2023-02-27T21:36:43.075Z,4.10
2023-02-27T21:39:14.811Z,5.20
2023-02-27T21:41:42.861Z,4.80
2023-02-27T21:44:13.314Z,4.68
2023-02-27T21:46:41.030Z,4.72
2023-02-27T21:49:08.702Z,4.90
2023-02-27T21:51:40.967Z,4.75
2023-02-27T21:54:11.276Z,4.53
2023-02-27T21:56:39.888Z,4.40
2023-02-27T21:59:07.547Z,4.40
2023-02-27T22:01:35.829Z,4.90
2023-02-27T22:04:04.121Z,4.50
2023-02-27T22:06:33.341Z,4.55
2023-02-27T22:09:04.780Z,4.68
2023-02-27T22:11:40.082Z,4.28
2023-02-27T22:14:08.057Z,4.68
2023-02-27T22:16:35.636Z,4.68
2023-02-27T22:19:19.572Z,4.18
2023-02-27T22:21:47.066Z,4.25
2023-02-27T22:24:14.963Z,4.47
2023-02-27T22:26:42.600Z,4.70
2023-02-27T22:29:09.969Z,3.70
2023-02-27T22:31:38.616Z,4.82
2023-02-27T22:34:12.314Z,3.78
2023-02-27T22:36:41.687Z,3.97
2023-02-27T22:39:12.260Z,3.90
2023-02-27T22:41:41.363Z,3.95
2023-02-27T22:44:12.057Z,3.50
2023-02-27T22:46:42.764Z,4.10
2023-02-27T22:49:17.874Z,3.75
2023-02-27T22:51:49.155Z,3.63
2023-02-27T22:54:18.841Z,4.20
2023-02-27T22:56:46.139Z,4.00
2023-02-27T22:59:14.368Z,3.80
2023-02-27T23:01:41.712Z,3.58
2023-02-27T23:04:11.441Z,3.65
2023-02-27T23:06:40.696Z,3.53
2023-02-27T23:09:11.104Z,3.90
2023-02-27T23:11:38.550Z,3.80
2023-02-27T23:14:06.158Z,4.03
2023-02-27T23:16:34.108Z,3.42
2023-02-27T23:19:02.015Z,3.97
2023-02-27T23:21:34.733Z,3.40
2023-02-27T23:24:07.630Z,3.67
2023-02-27T23:29:02.905Z,4.18
2023-02-27T23:31:32.295Z,4.32
2023-02-27T23:34:01.634Z,3.80
2023-02-27T23:36:30.402Z,4.30
2023-02-27T23:38:59.258Z,3.78
2023-02-27T23:41:27.674Z,3.75
2023-02-27T23:43:56.696Z,4.03
2023-02-27T23:46:24.006Z,3.75
2023-02-27T23:48:51.328Z,4.10
2023-02-27T23:51:18.621Z,4.20
2023-02-27T23:53:46.011Z,3.65
2023-02-27T23:56:21.614Z,3.67
2023-02-27T23:58:52.999Z,4.05
